Time;durP1;ratioP1;P1;durP2;ratioP2;P2;SDS_P1;SDS_P2;PMS_P1;PMS_P2;Temp;Humidity;BMP_temperature;BMP_pressure;BME280_temperature;BME280_humidity;BME280_pressure;Samples;Min_cycle;Max_cycle;Signal;HPM_P1;HPM_P2
2023/06/22 00:00:54;;;;;;;13.50;3.53;;;;;;;20.23;56.53;101310.13;4995242;28;20517;-53
2023/06/22 00:03:22;;;;;;;13.30;3.58;;;;;;;20.14;56.96;101306.22;4995091;28;20034;-52
2023/06/22 00:05:49;;;;;;;13.70;3.80;;;;;;;20.03;56.36;101302.59;4995167;28;20498;-50
2023/06/22 00:08:16;;;;;;;10.57;3.63;;;;;;;20.34;56.32;101299.34;4995094;28;20122;-50
2023/06/22 00:10:43;;;;;;;11.23;3.78;;;;;;;20.18;56.04;101301.91;4995042;28;20475;-45
2023/06/22 00:13:10;;;;;;;12.32;3.83;;;;;;;20.06;57.95;101293.13;4994576;28;20440;-45
2023/06/22 00:15:38;;;;;;;12.80;3.83;;;;;;;19.66;56.90;101296.25;4994854;28;20038;-44
2023/06/22 00:18:06;;;;;;;13.55;3.63;;;;;;;19.36;57.36;101293.97;4995004;28;20041;-46
2023/06/22 00:20:36;;;;;;;11.48;3.63;;;;;;;19.61;57.59;101291.59;4994586;28;20054;-45
2023/06/22 00:23:08;;;;;;;13.50;3.88;;;;;;;19.53;58.06;101289.28;4994629;28;20117;-45
2023/06/22 00:25:35;;;;;;;12.02;4.25;;;;;;;19.40;58.31;101292.41;4994927;28;20022;-46
2023/06/22 00:28:03;;;;;;;13.15;4.18;;;;;;;19.20;58.70;101291.06;4994869;28;20030;-46
2023/06/22 00:30:31;;;;;;;15.45;3.72;;;;;;;19.09;59.29;101289.28;4994724;28;20031;-47
2023/06/22 00:32:58;;;;;;;12.43;3.33;;;;;;;19.06;59.65;101289.81;4994640;28;20060;-45
2023/06/22 00:35:29;;;;;;;11.13;3.78;;;;;;;18.96;59.46;101282.34;4994635;28;20022;-46
2023/06/22 00:38:00;;;;;;;11.05;3.30;;;;;;;19.15;59.35;101280.16;4994947;28;20378;-45
2023/06/22 00:40:31;;;;;;;12.90;3.40;;;;;;;18.77;59.91;101272.03;4994368;28;20047;-45
2023/06/22 00:42:57;;;;;;;11.07;3.88;;;;;;;18.61;60.80;101266.38;4995075;28;20034;-48
2023/06/22 00:45:24;;;;;;;12.07;3.63;;;;;;;18.80;60.16;101268.84;4994489;28;20033;-48
2023/06/22 00:47:56;;;;;;;14.25;3.92;;;;;;;18.53;60.93;101261.38;4994695;28;20037;-49
2023/06/22 00:50:24;;;;;;;10.63;3.13;;;;;;;18.46;61.69;101263.44;4994445;28;20037;-48
2023/06/22 00:52:53;;;;;;;12.88;3.85;;;;;;;18.62;61.06;101262.59;4994363;28;20034;-47
2023/06/22 00:55:21;;;;;;;12.45;3.75;;;;;;;18.54;60.99;101259.47;4994508;28;20030;-46
2023/06/22 00:57:48;;;;;;;11.43;3.53;;;;;;;18.75;60.46;101255.22;4994168;28;20030;-49
2023/06/22 01:00:19;;;;;;;9.82;3.67;;;;;;;18.77;60.47;101255.75;4994061;28;20113;-47
2023/06/22 01:02:47;;;;;;;13.13;4.05;;;;;;;18.69;61.24;101252.41;4994138;28;20030;-49
2023/06/22 01:05:14;;;;;;;9.60;3.72;;;;;;;18.83;60.72;101252.91;4994112;28;20494;-46
2023/06/22 01:08:07;;;;;;;18.17;4.10;;;;;;;18.61;61.03;101255.53;4993850;28;20113;-49
2023/06/22 01:11:09;;;;;;;10.48;3.88;;;;;;;18.61;62.32;101246.59;4991283;28;20050;-50
2023/06/22 01:13:48;;;;;;;15.38;4.38;;;;;;;18.38;61.63;101244.91;4989266;28;20042;-49
2023/06/22 01:16:35;;;;;;;14.35;4.05;;;;;;;18.09;62.40;101255.81;4994282;28;20101;-49
2023/06/22 01:19:25;;;;;;;13.45;4.40;;;;;;;18.29;62.21;101251.78;4993866;28;20051;-49
2023/06/22 01:21:53;;;;;;;9.98;3.22;;;;;;;18.36;62.35;101252.44;4994329;28;20486;-49
2023/06/22 01:24:27;;;;;;;17.20;4.57;;;;;;;18.48;61.73;101253.16;4993950;28;20034;-48
2023/06/22 01:26:53;;;;;;;14.18;3.60;;;;;;;18.31;62.49;101255.06;4993361;28;20495;-48
2023/06/22 01:29:23;;;;;;;16.48;4.47;;;;;;;18.28;61.83;101250.97;4993684;28;20026;-50
2023/06/22 01:31:51;;;;;;;11.90;4.20;;;;;;;18.34;62.51;101254.59;4993726;28;20098;-47
2023/06/22 01:34:18;;;;;;;12.00;3.67;;;;;;;18.51;61.60;101251.84;4993425;28;20030;-49
2023/06/22 01:36:46;;;;;;;10.68;3.45;;;;;;;18.72;60.79;101261.97;4993714;28;20137;-49
2023/06/22 01:39:14;;;;;;;16.35;4.03;;;;;;;18.50;61.29;101253.75;4993569;28;20426;-49
2023/06/22 01:41:42;;;;;;;13.35;3.92;;;;;;;18.54;60.86;101257.59;4993446;28;20046;-48
2023/06/22 01:44:10;;;;;;;10.23;4.03;;;;;;;18.33;61.47;101256.47;4993818;28;20093;-45
2023/06/22 01:46:38;;;;;;;9.98;4.07;;;;;;;18.67;60.89;101256.44;4993578;28;20026;-49
2023/06/22 01:49:05;;;;;;;10.32;3.50;;;;;;;18.71;60.44;101253.00;4993540;28;20136;-49
2023/06/22 01:51:32;;;;;;;9.27;3.83;;;;;;;18.63;60.75;101252.56;4993504;28;20475;-47
2023/06/22 01:53:58;;;;;;;14.18;4.07;;;;;;;18.67;60.42;101259.16;4993512;28;20033;-48
2023/06/22 01:56:26;;;;;;;13.20;3.55;;;;;;;18.72;60.22;101251.13;4993511;28;20026;-46
2023/06/22 01:59:01;;;;;;;9.13;3.45;;;;;;;18.71;60.19;101254.88;4993465;28;20479;-46
2023/06/22 02:01:36;;;;;;;9.18;3.65;;;;;;;18.72;60.27;101256.53;4993476;28;20030;-47
2023/06/22 02:04:13;;;;;;;12.60;3.55;;;;;;;19.15;59.39;101255.72;4993381;28;20044;-49
2023/06/22 02:06:45;;;;;;;6.75;3.22;;;;;;;19.04;58.74;101245.81;4993346;28;20432;-46
2023/06/22 02:09:17;;;;;;;12.48;3.90;;;;;;;19.61;57.32;101244.59;4993302;28;20027;-47
2023/06/22 02:11:46;;;;;;;8.38;3.47;;;;;;;19.81;56.39;101241.25;4993787;28;20022;-50
2023/06/22 02:14:13;;;;;;;10.70;3.45;;;;;;;20.04;56.02;101243.63;4993341;28;20080;-48
2023/06/22 02:16:40;;;;;;;8.35;3.55;;;;;;;19.29;57.56;101245.31;4993354;28;20033;-46
2023/06/22 02:19:07;;;;;;;11.77;3.42;;;;;;;19.71;56.66;101242.81;4993295;28;20034;-47
2023/06/22 02:21:33;;;;;;;12.40;3.85;;;;;;;19.87;56.01;101248.38;4993244;28;20403;-45
2023/06/22 02:23:59;;;;;;;13.68;4.20;;;;;;;19.93;55.73;101242.75;4993244;28;20034;-46
2023/06/22 02:26:26;;;;;;;9.98;3.20;;;;;;;20.13;55.73;101250.22;4993375;28;20023;-46
2023/06/22 02:28:53;;;;;;;8.00;2.97;;;;;;;19.77;56.18;101252.66;4993169;28;20033;-46
2023/06/22 02:31:20;;;;;;;9.05;3.10;;;;;;;19.45;57.01;101249.03;4993207;28;20545;-45
2023/06/22 02:33:48;;;;;;;11.52;3.35;;;;;;;19.76;56.51;101242.03;4993450;28;20432;-46
2023/06/22 02:36:14;;;;;;;9.85;3.13;;;;;;;19.64;57.31;101244.09;4993634;28;20034;-46
2023/06/22 02:38:47;;;;;;;10.85;3.65;;;;;;;19.86;56.34;101244.03;4996897;28;20092;-45
2023/06/22 02:41:18;;;;;;;10.45;3.70;;;;;;;19.75;56.70;101241.19;4996727;28;20050;-48
2023/06/22 02:43:47;;;;;;;8.50;3.47;;;;;;;19.87;56.25;101241.03;4996899;28;20034;-46
2023/06/22 02:46:14;;;;;;;10.40;3.38;;;;;;;19.26;57.94;101243.91;4996884;28;20105;-46
2023/06/22 02:48:41;;;;;;;11.32;3.75;;;;;;;19.40;57.29;101248.97;4996699;28;20026;-45
2023/06/22 02:51:07;;;;;;;15.23;4.35;;;;;;;18.93;58.64;101238.63;4996670;28;20109;-47
2023/06/22 02:53:34;;;;;;;11.85;3.70;;;;;;;18.92;59.29;101235.09;4996691;28;20026;-58
2023/06/22 02:56:05;;;;;;;7.72;3.70;;;;;;;18.81;59.55;101233.31;4996728;28;20033;-45
2023/06/22 02:58:38;;;;;;;12.00;3.80;;;;;;;18.45;61.27;101238.22;4996833;28;20053;-47
2023/06/22 03:01:07;;;;;;;10.77;3.65;;;;;;;17.58;63.49;101249.47;4996818;28;20113;-46
2023/06/22 03:03:33;;;;;;;10.77;3.65;;;;;;;17.73;63.98;101237.31;4996482;28;20034;-45
2023/06/22 03:06:00;;;;;;;9.38;3.53;;;;;;;17.51;64.15;101245.28;4996453;28;20053;-45
2023/06/22 03:08:27;;;;;;;10.93;4.07;;;;;;;16.99;66.16;101251.56;4996420;28;20073;-45
2023/06/22 03:10:53;;;;;;;13.80;4.65;;;;;;;16.82;66.94;101247.94;4996400;28;20050;-45
2023/06/22 03:13:19;;;;;;;13.52;4.15;;;;;;;16.37;68.41;101248.50;4996539;28;20105;-44
2023/06/22 03:15:46;;;;;;;11.50;4.22;;;;;;;16.24;69.37;101248.75;4996195;28;20026;-45
2023/06/22 03:18:12;;;;;;;12.52;4.60;;;;;;;16.04;70.23;101247.19;4996311;28;20113;-45
2023/06/22 03:20:38;;;;;;;13.40;4.45;;;;;;;15.27;73.42;101251.59;4996180;28;20414;-45
2023/06/22 03:23:05;;;;;;;13.45;4.32;;;;;;;15.31;73.61;101250.09;4996034;28;20049;-47
2023/06/22 03:25:31;;;;;;;10.15;4.45;;;;;;;15.02;74.93;101252.50;4995955;28;20022;-46
2023/06/22 03:27:57;;;;;;;11.52;5.70;;;;;;;14.96;75.35;101260.69;4996106;28;20109;-45
2023/06/22 03:30:23;;;;;;;13.90;4.82;;;;;;;14.81;76.10;101263.72;4996017;28;20483;-46
2023/06/22 03:32:49;;;;;;;12.63;4.85;;;;;;;14.71;76.97;101258.03;4996018;28;20034;-46
2023/06/22 03:35:16;;;;;;;14.23;4.47;;;;;;;14.68;76.92;101261.19;4996160;28;20084;-45
2023/06/22 03:37:42;;;;;;;16.23;5.47;;;;;;;14.69;77.18;101260.13;4995958;28;20061;-46
2023/06/22 03:40:09;;;;;;;20.83;5.65;;;;;;;14.68;77.41;101261.19;4995746;28;20054;-46
2023/06/22 03:42:36;;;;;;;14.50;5.05;;;;;;;14.62;77.54;101270.16;4996151;28;20030;-47
2023/06/22 03:45:03;;;;;;;10.75;5.35;;;;;;;14.39;78.50;101266.19;4995696;28;20502;-47
2023/06/22 03:47:29;;;;;;;11.95;5.30;;;;;;;14.18;79.37;101278.16;4995748;28;20102;-46
2023/06/22 03:49:56;;;;;;;16.15;6.50;;;;;;;14.15;79.66;101280.47;4994801;28;20072;-46
2023/06/22 03:52:22;;;;;;;15.80;5.72;;;;;;;14.27;79.20;101284.13;4995721;28;20033;-50
2023/06/22 03:54:49;;;;;;;16.95;5.50;;;;;;;14.24;79.23;101265.69;4995852;28;20391;-47
2023/06/22 03:57:15;;;;;;;11.15;5.15;;;;;;;14.31;79.06;101279.09;4995552;28;20062;-46
2023/06/22 03:59:41;;;;;;;15.52;5.13;;;;;;;14.30;78.99;101285.53;4995583;28;20033;-50
2023/06/22 04:02:07;;;;;;;11.45;5.35;;;;;;;14.32;78.69;101291.50;5010804;28;20438;-48
2023/06/22 04:04:35;;;;;;;10.02;4.60;;;;;;;14.31;78.73;101282.63;4995366;28;20035;-49
2023/06/22 04:07:01;;;;;;;13.07;4.65;;;;;;;14.24;78.71;101284.53;4995858;28;20089;-46
2023/06/22 04:09:27;;;;;;;15.35;4.88;;;;;;;14.05;79.73;101285.50;4995369;28;20019;-46
2023/06/22 04:11:53;;;;;;;11.23;4.70;;;;;;;14.14;79.35;101279.63;4995372;28;20029;-46
2023/06/22 04:14:20;;;;;;;8.98;4.97;;;;;;;14.10;79.44;101282.97;4995613;28;20038;-46
2023/06/22 04:16:46;;;;;;;15.52;4.95;;;;;;;13.91;80.33;101284.78;4995215;28;20041;-47
2023/06/22 04:19:16;;;;;;;14.50;4.97;;;;;;;13.94;80.27;101279.81;4995016;28;20442;-48
2023/06/22 04:21:44;;;;;;;12.25;4.53;;;;;;;14.06;79.74;101284.47;4995090;28;20036;-46
2023/06/22 04:24:11;;;;;;;12.48;4.68;;;;;;;14.03;79.91;101283.03;4994884;28;20043;-48
2023/06/22 04:26:37;;;;;;;17.02;5.43;;;;;;;13.68;81.14;101294.22;4995224;28;20056;-46
2023/06/22 04:29:08;;;;;;;14.45;5.40;;;;;;;13.79;80.59;101287.34;4994905;28;20022;-47
2023/06/22 04:31:37;;;;;;;10.35;4.40;;;;;;;13.80;80.57;101288.97;4995331;28;20027;-46
2023/06/22 04:34:08;;;;;;;12.82;4.55;;;;;;;13.80;80.31;101296.22;4994867;28;20034;-48
2023/06/22 04:36:40;;;;;;;10.63;4.72;;;;;;;13.71;80.50;101292.97;4994725;28;20030;-48
2023/06/22 04:39:11;;;;;;;13.15;4.78;;;;;;;13.81;80.28;101295.19;4994709;28;20077;-46
2023/06/22 04:41:44;;;;;;;13.13;5.15;;;;;;;13.61;81.28;101293.44;4994540;28;20049;-47
2023/06/22 04:44:33;;;;;;;11.10;4.72;;;;;;;13.63;81.24;101304.00;4994502;28;20383;-45
2023/06/22 04:47:03;;;;;;;15.20;5.68;;;;;;;13.45;81.32;101297.44;4994509;28;20023;-46
2023/06/22 04:49:35;;;;;;;9.90;4.32;;;;;;;13.42;81.21;101292.47;4994422;28;20030;-46
2023/06/22 04:52:09;;;;;;;12.77;4.68;;;;;;;13.47;81.48;101295.38;4994473;28;20085;-46
2023/06/22 04:54:37;;;;;;;13.98;4.78;;;;;;;13.41;82.16;101306.16;4994494;28;20053;-46
2023/06/22 04:57:09;;;;;;;15.55;4.78;;;;;;;13.46;81.77;101301.78;4994340;28;20037;-46
2023/06/22 04:59:38;;;;;;;13.25;4.88;;;;;;;13.47;81.54;101299.91;4994235;28;20542;-50
2023/06/22 05:02:05;;;;;;;7.68;3.88;;;;;;;13.48;81.54;101302.38;4994211;28;20032;-50
2023/06/22 05:04:32;;;;;;;13.85;4.65;;;;;;;13.58;80.94;101295.72;4994123;28;20426;-50
2023/06/22 05:07:03;;;;;;;18.10;5.10;;;;;;;13.57;80.56;101302.16;4994216;28;20022;-51
2023/06/22 05:09:29;;;;;;;12.15;4.55;;;;;;;13.67;79.40;101300.66;4994069;28;20073;-47
2023/06/22 05:11:56;;;;;;;10.68;4.47;;;;;;;13.65;78.78;101297.34;4994106;28;20030;-45
2023/06/22 05:14:23;;;;;;;16.20;4.35;;;;;;;13.36;79.68;101306.78;4994056;28;20026;-46
2023/06/22 05:16:51;;;;;;;9.85;4.05;;;;;;;13.46;79.69;101293.72;4994074;28;20076;-46
2023/06/22 05:19:18;;;;;;;12.48;4.05;;;;;;;13.55;79.17;101293.47;4993966;28;20037;-47
2023/06/22 05:21:44;;;;;;;15.82;4.03;;;;;;;13.54;79.27;101284.56;4993917;28;20031;-47
2023/06/22 05:24:10;;;;;;;15.88;5.13;;;;;;;13.48;79.25;101282.75;4993864;28;20053;-46
2023/06/22 05:26:37;;;;;;;14.00;4.68;;;;;;;13.58;78.92;101283.09;4993798;28;20034;-46
2023/06/22 05:29:03;;;;;;;9.35;4.07;;;;;;;13.59;79.28;101275.84;4993697;28;20026;-46
2023/06/22 05:31:30;;;;;;;8.70;3.92;;;;;;;13.56;79.36;101279.81;4994545;28;20117;-46
2023/06/22 05:33:56;;;;;;;11.73;4.35;;;;;;;13.46;79.49;101282.97;4994623;28;20038;-45
2023/06/22 05:36:25;;;;;;;19.60;5.18;;;;;;;13.22;80.78;101280.19;4994439;28;20038;-47
2023/06/22 05:38:52;;;;;;;14.65;4.50;;;;;;;13.27;80.86;101291.94;4993954;28;20026;-46
2023/06/22 05:41:19;;;;;;;16.58;4.72;;;;;;;13.35;80.90;101286.31;4993432;28;20046;-46
2023/06/22 05:43:45;;;;;;;15.68;4.47;;;;;;;13.52;80.27;101283.16;4993479;28;20030;-46
2023/06/22 05:46:12;;;;;;;10.13;4.90;;;;;;;13.45;80.54;101292.06;4993608;28;20030;-45
2023/06/22 05:48:38;;;;;;;11.73;4.68;;;;;;;13.35;81.02;101280.94;4993786;28;20032;-46
2023/06/22 05:51:04;;;;;;;9.82;4.43;;;;;;;13.25;81.65;101283.25;4993845;28;20097;-47
2023/06/22 05:53:30;;;;;;;11.13;5.15;;;;;;;13.29;81.49;101283.66;4993581;28;20034;-49
2023/06/22 05:55:56;;;;;;;12.27;4.22;;;;;;;13.02;82.39;101281.03;4993525;28;20034;-48
2023/06/22 05:58:23;;;;;;;9.98;4.63;;;;;;;12.99;81.94;101284.13;4993538;28;20108;-47
2023/06/22 06:00:49;;;;;;;12.95;4.60;;;;;;;12.98;81.11;101278.97;4993878;28;20489;-49
2023/06/22 06:03:16;;;;;;;14.90;4.80;;;;;;;12.90;81.50;101280.84;4993322;28;20023;-50
2023/06/22 06:05:44;;;;;;;13.77;4.60;;;;;;;12.91;81.77;101282.50;4993763;28;20026;-48
2023/06/22 06:08:11;;;;;;;14.50;5.38;;;;;;;12.83;81.83;101277.38;4993809;28;20029;-50
2023/06/22 06:10:37;;;;;;;14.57;4.78;;;;;;;12.83;82.02;101277.38;4993366;28;20034;-49
2023/06/22 06:13:04;;;;;;;13.82;5.22;;;;;;;12.81;82.32;101276.72;4996317;28;20030;-46
2023/06/22 06:15:32;;;;;;;14.40;5.38;;;;;;;12.87;82.06;101281.25;4997319;28;20428;-46
2023/06/22 06:17:58;;;;;;;15.27;5.10;;;;;;;12.79;82.16;101276.13;4997191;28;20037;-46
2023/06/22 06:20:26;;;;;;;13.68;4.63;;;;;;;12.86;81.72;101276.94;4997305;28;20041;-46
2023/06/22 06:22:52;;;;;;;12.48;4.93;;;;;;;12.85;81.39;101275.28;4997124;28;20030;-46
2023/06/22 06:25:20;;;;;;;16.80;4.70;;;;;;;12.82;81.01;101270.31;4997077;28;20053;-47
2023/06/22 06:27:47;;;;;;;11.82;4.85;;;;;;;12.87;80.68;101265.16;4997319;28;20089;-46
2023/06/22 06:30:15;;;;;;;17.75;5.18;;;;;;;12.73;81.20;101276.16;4997152;28;20037;-46
2023/06/22 06:32:45;;;;;;;12.10;4.28;;;;;;;12.84;81.29;101267.44;4997047;28;20030;-50
2023/06/22 06:35:13;;;;;;;16.55;5.22;;;;;;;12.66;82.30;101265.44;4996973;28;20101;-48
2023/06/22 06:37:41;;;;;;;10.00;4.43;;;;;;;12.71;81.83;101270.97;4997240;28;20036;-47
2023/06/22 06:40:10;;;;;;;12.98;4.97;;;;;;;12.81;80.89;101265.16;4996706;28;20502;-47
2023/06/22 06:42:45;;;;;;;14.38;4.53;;;;;;;12.77;80.84;101261.25;4996941;28;20113;-49
2023/06/22 06:45:13;;;;;;;15.85;5.15;;;;;;;12.76;79.94;101265.78;4997280;28;20578;-49
2023/06/22 06:47:41;;;;;;;17.35;4.65;;;;;;;12.65;80.91;101256.50;4996770;28;20057;-50
2023/06/22 06:50:08;;;;;;;16.02;4.82;;;;;;;12.67;81.18;101251.78;4996647;28;20030;-49
2023/06/22 06:52:35;;;;;;;11.02;4.78;;;;;;;12.65;80.67;101253.81;4996740;28;20107;-47
2023/06/22 06:55:04;;;;;;;13.43;4.32;;;;;;;12.63;81.34;101247.03;4996953;28;20105;-47
2023/06/22 06:57:30;;;;;;;11.40;4.57;;;;;;;12.61;81.29;101244.56;4996507;28;20031;-50
2023/06/22 06:59:57;;;;;;;13.18;5.00;;;;;;;12.69;80.62;101243.50;4996918;28;20041;-50
2023/06/22 07:02:27;;;;;;;11.82;4.95;;;;;;;12.66;80.80;101239.38;4996457;28;20026;-49
2023/06/22 07:04:57;;;;;;;10.35;4.10;;;;;;;12.68;80.92;101242.69;4996715;28;20030;-49
2023/06/22 07:07:24;;;;;;;13.13;4.57;;;;;;;12.69;81.09;101238.94;4996463;28;20464;-47
2023/06/22 07:09:50;;;;;;;11.85;4.30;;;;;;;12.56;81.85;101238.16;4996253;28;20444;-50
2023/06/22 07:12:16;;;;;;;13.93;4.63;;;;;;;12.76;81.27;101236.25;4996402;28;20475;-47
2023/06/22 07:14:42;;;;;;;14.38;4.20;;;;;;;12.79;81.48;101227.78;4996226;28;20076;-49
2023/06/22 07:17:08;;;;;;;11.35;4.63;;;;;;;12.79;81.13;101227.78;4996505;28;20022;-50
2023/06/22 07:19:35;;;;;;;8.32;4.20;;;;;;;12.80;80.64;101233.97;4996149;28;20034;-50
2023/06/22 07:22:01;;;;;;;10.90;4.28;;;;;;;12.80;80.20;101245.53;4996174;28;20383;-49
2023/06/22 07:24:27;;;;;;;14.00;4.65;;;;;;;12.66;79.89;101235.88;4994704;28;20045;-46
2023/06/22 07:26:54;;;;;;;8.68;4.07;;;;;;;12.73;79.62;101242.06;4996128;28;20487;-46
2023/06/22 07:29:21;;;;;;;10.40;4.35;;;;;;;12.75;80.25;101245.34;4996016;28;20028;-50
2023/06/22 07:31:49;;;;;;;11.30;5.13;;;;;;;12.68;80.92;101233.81;4995961;28;20026;-48
2023/06/22 07:34:15;;;;;;;14.30;4.75;;;;;;;12.71;79.83;101238.72;4995906;28;20403;-47
2023/06/22 07:36:41;;;;;;;10.63;4.60;;;;;;;12.69;79.40;101232.75;4995882;28;20029;-46
2023/06/22 07:39:08;;;;;;;10.50;4.40;;;;;;;12.60;80.19;101221.44;4995898;28;20030;-49
2023/06/22 07:41:34;;;;;;;12.60;4.60;;;;;;;12.61;80.34;101219.56;4995643;28;20042;-49
2023/06/22 07:44:00;;;;;;;17.35;4.78;;;;;;;12.56;80.23;101216.69;4995668;28;20376;-46
2023/06/22 07:46:27;;;;;;;14.88;5.20;;;;;;;12.59;80.04;101221.63;4995698;28;20442;-45
2023/06/22 07:48:53;;;;;;;8.50;3.85;;;;;;;12.58;79.57;101225.34;4995735;28;20453;-50
2023/06/22 07:51:19;;;;;;;14.25;4.28;;;;;;;12.60;79.33;101223.25;4995655;28;20081;-46
2023/06/22 07:53:45;;;;;;;9.65;4.30;;;;;;;12.55;79.79;101223.91;4995529;28;20080;-46
2023/06/22 07:56:12;;;;;;;10.07;4.35;;;;;;;12.58;80.16;101218.13;4995880;28;20018;-49
2023/06/22 07:58:38;;;;;;;10.10;4.55;;;;;;;12.61;80.28;101224.94;4995418;28;20026;-47
2023/06/22 08:01:05;;;;;;;21.27;4.78;;;;;;;12.49;80.72;101224.72;4995489;28;20031;-50
2023/06/22 08:03:32;;;;;;;12.50;4.72;;;;;;;12.61;80.16;101224.94;4995539;28;20041;-49
2023/06/22 08:05:59;;;;;;;9.43;3.70;;;;;;;12.55;79.67;101215.03;4996068;28;20060;-45
2023/06/22 08:08:25;;;;;;;10.00;3.85;;;;;;;12.57;79.88;101207.59;4995813;28;20035;-49
2023/06/22 08:10:51;;;;;;;11.25;4.00;;;;;;;12.66;79.42;101201.78;4995248;28;20022;-48
2023/06/22 08:13:17;;;;;;;16.38;5.38;;;;;;;12.57;79.43;101215.66;4995199;28;20099;-50
2023/06/22 08:15:44;;;;;;;7.85;4.00;;;;;;;12.59;79.70;101205.50;4995233;28;20019;-49
2023/06/22 08:18:10;;;;;;;9.18;4.30;;;;;;;12.60;80.28;101205.31;4995137;28;20034;-47
2023/06/22 08:20:36;;;;;;;9.93;4.28;;;;;;;12.55;79.99;101204.31;5010181;28;20141;-49
2023/06/22 08:23:06;;;;;;;11.77;4.25;;;;;;;12.61;79.30;101203.47;4995053;28;20471;-46
2023/06/22 08:25:34;;;;;;;8.82;4.15;;;;;;;12.65;78.60;101210.03;4994951;28;20164;-46
2023/06/22 08:28:01;;;;;;;12.80;4.63;;;;;;;12.66;78.49;101199.09;4994856;28;20113;-48
2023/06/22 08:30:27;;;;;;;13.68;4.57;;;;;;;12.62;78.56;101200.56;4995123;28;20462;-49
2023/06/22 08:32:55;;;;;;;6.95;3.83;;;;;;;12.58;79.21;101198.50;4994856;28;20069;-48
2023/06/22 08:35:22;;;;;;;10.65;3.78;;;;;;;12.59;79.42;101194.78;4994390;28;20168;-48
2023/06/22 08:37:55;;;;;;;10.98;4.57;;;;;;;12.67;79.27;101203.44;4995055;28;20050;-46
2023/06/22 08:40:22;;;;;;;14.50;3.95;;;;;;;12.67;78.57;101192.69;4994464;28;20046;-49
2023/06/22 08:42:49;;;;;;;14.20;4.10;;;;;;;12.60;78.63;101194.56;4994855;28;20406;-45
2023/06/22 08:45:16;;;;;;;11.10;3.85;;;;;;;12.61;78.09;101190.84;4994607;28;20483;-49
2023/06/22 08:47:42;;;;;;;12.73;4.35;;;;;;;12.53;78.44;101195.63;4994537;28;20053;-47
2023/06/22 08:50:10;;;;;;;9.35;3.40;;;;;;;12.54;78.61;101194.56;4994587;28;20033;-49
2023/06/22 08:52:37;;;;;;;10.60;4.13;;;;;;;12.64;78.39;101192.28;4994523;28;20110;-47
2023/06/22 08:55:04;;;;;;;18.02;4.13;;;;;;;12.71;78.12;101190.38;4994467;28;20134;-46
2023/06/22 08:57:30;;;;;;;9.35;3.92;;;;;;;12.61;78.37;101187.34;4994494;28;20026;-49
2023/06/22 08:59:58;;;;;;;12.52;4.20;;;;;;;12.66;78.62;101198.28;4994335;28;20026;-46
2023/06/22 09:02:25;;;;;;;9.07;3.53;;;;;;;12.72;77.66;101197.44;4994619;28;20026;-50
2023/06/22 09:04:55;;;;;;;13.45;4.03;;;;;;;12.70;77.47;101199.50;4994312;28;20057;-48
2023/06/22 09:07:23;;;;;;;11.90;4.43;;;;;;;12.76;77.44;101195.13;4994707;28;20049;-46
2023/06/22 09:09:50;;;;;;;10.85;4.82;;;;;;;12.63;77.71;101196.81;4994746;28;20109;-47
2023/06/22 09:12:19;;;;;;;11.38;4.28;;;;;;;12.73;77.62;101198.25;4994086;28;20081;-48
2023/06/22 09:14:46;;;;;;;9.77;4.00;;;;;;;12.69;77.60;101195.16;4994358;28;20057;-47
2023/06/22 09:17:13;;;;;;;11.30;4.07;;;;;;;12.71;77.90;101195.75;4994078;28;20440;-47
2023/06/22 09:19:40;;;;;;;9.15;3.97;;;;;;;12.82;77.36;101194.28;4994014;28;20036;-48
2023/06/22 09:22:06;;;;;;;9.77;4.20;;;;;;;12.78;76.75;101196.59;4994000;28;20030;-47
2023/06/22 09:24:33;;;;;;;9.65;3.70;;;;;;;12.80;76.45;101199.88;4994187;28;20030;-46
2023/06/22 09:26:59;;;;;;;7.18;4.10;;;;;;;12.75;76.66;101188.94;4993874;28;20486;-46
2023/06/22 09:29:26;;;;;;;6.97;3.78;;;;;;;12.88;76.29;101191.59;5008851;28;20030;-47
2023/06/22 09:31:55;;;;;;;11.30;4.30;;;;;;;12.94;76.64;101192.59;4994122;28;20028;-46
2023/06/22 09:34:21;;;;;;;10.65;3.92;;;;;;;12.88;76.50;101183.53;4994019;28;20041;-48
2023/06/22 09:36:48;;;;;;;12.00;3.97;;;;;;;12.93;76.22;101180.19;4993614;28;20076;-45
2023/06/22 09:39:14;;;;;;;8.38;3.70;;;;;;;12.76;76.95;101185.22;4993600;28;20098;-45
2023/06/22 09:41:40;;;;;;;11.43;4.18;;;;;;;12.85;76.63;101178.56;4993496;28;20116;-44
2023/06/22 09:44:07;;;;;;;11.07;4.18;;;;;;;12.84;76.76;101176.94;4993477;28;20459;-49
2023/06/22 09:46:33;;;;;;;11.43;3.75;;;;;;;12.96;76.33;101174.41;4993001;28;20160;-46
2023/06/22 09:48:59;;;;;;;8.63;3.78;;;;;;;12.97;76.17;101176.03;4993568;28;20022;-45
2023/06/22 09:51:25;;;;;;;10.20;3.63;;;;;;;13.04;75.50;101176.81;4993850;28;20031;-45
2023/06/22 09:53:53;;;;;;;10.68;4.80;;;;;;;13.06;75.50;101177.47;4993619;28;20559;-46
2023/06/22 09:56:20;;;;;;;9.90;3.75;;;;;;;13.08;75.17;101171.88;4993785;28;20077;-45
2023/06/22 09:58:47;;;;;;;8.30;3.60;;;;;;;13.16;74.78;101174.31;4993828;28;20030;-45
2023/06/22 10:01:17;;;;;;;7.38;3.50;;;;;;;13.15;74.19;101167.28;4993579;28;20093;-47
2023/06/22 10:03:43;;;;;;;16.17;4.15;;;;;;;13.09;74.83;101163.56;4993356;28;20030;-46
2023/06/22 10:06:09;;;;;;;13.48;4.40;;;;;;;13.02;74.97;101165.47;4993510;28;20023;-45
2023/06/22 10:08:36;;;;;;;12.32;4.53;;;;;;;13.05;75.13;101166.94;4993376;28;20057;-50
2023/06/22 10:11:03;;;;;;;8.27;3.80;;;;;;;13.00;75.04;101164.88;4993619;28;20057;-46
2023/06/22 10:13:30;;;;;;;9.00;4.18;;;;;;;13.08;74.62;101169.16;4993407;28;20027;-45
2023/06/22 10:15:56;;;;;;;8.57;4.07;;;;;;;13.02;74.58;101162.78;4993428;28;20037;-49
2023/06/22 10:18:22;;;;;;;6.45;3.72;;;;;;;12.99;74.69;101162.38;4993235;28;20046;-48
2023/06/22 10:20:51;;;;;;;7.15;3.90;;;;;;;13.03;74.57;101167.13;4993306;28;20026;-47
2023/06/22 10:23:18;;;;;;;9.07;3.83;;;;;;;13.05;74.33;101166.94;4993313;28;20142;-46
2023/06/22 10:25:44;;;;;;;12.25;3.95;;;;;;;13.15;73.57;101169.94;4993232;28;20113;-48
2023/06/22 10:28:12;;;;;;;7.18;4.03;;;;;;;13.09;73.66;101168.94;4993293;28;20037;-48
2023/06/22 10:30:41;;;;;;;12.50;4.85;;;;;;;13.12;73.76;101160.47;4993208;28;20386;-50
2023/06/22 10:33:11;;;;;;;9.23;4.03;;;;;;;13.09;73.53;101165.44;4993162;28;20037;-45
2023/06/22 10:35:38;;;;;;;6.35;3.80;;;;;;;13.11;73.49;101166.06;4993208;28;20046;-45
2023/06/22 10:38:04;;;;;;;9.20;3.78;;;;;;;13.13;74.09;101174.72;4993088;28;20519;-49
2023/06/22 10:40:31;;;;;;;9.13;3.90;;;;;;;13.05;74.15;101175.00;4993130;28;20401;-50
2023/06/22 10:42:57;;;;;;;10.80;4.13;;;;;;;13.06;74.20;101172.09;4993079;28;20037;-48
2023/06/22 10:45:23;;;;;;;8.93;3.67;;;;;;;12.95;74.59;101178.94;4991564;28;20034;-48
2023/06/22 10:47:50;;;;;;;9.23;3.85;;;;;;;12.91;74.87;101177.72;4992925;28;20023;-48
2023/06/22 10:50:16;;;;;;;10.13;3.90;;;;;;;13.00;74.21;101167.56;4993166;28;20120;-45
2023/06/22 10:52:42;;;;;;;11.98;4.22;;;;;;;13.07;73.79;101178.28;4993275;28;20467;-48
2023/06/22 10:55:10;;;;;;;11.13;4.00;;;;;;;13.04;74.05;101167.94;4993001;28;20109;-48
2023/06/22 10:57:43;;;;;;;9.73;3.95;;;;;;;13.05;73.67;101165.06;4993475;28;20027;-46
2023/06/22 11:00:11;;;;;;;9.77;4.15;;;;;;;13.13;73.34;101163.97;4996946;28;20048;-45
2023/06/22 11:02:37;;;;;;;12.50;4.35;;;;;;;13.10;73.16;101159.88;4996438;28;20034;-48
2023/06/22 11:05:03;;;;;;;9.30;3.83;;;;;;;12.98;73.50;101153.50;4996415;28;20026;-46
2023/06/22 11:07:30;;;;;;;9.07;4.13;;;;;;;13.05;73.30;101161.56;4996430;28;20363;-44
2023/06/22 11:09:56;;;;;;;12.18;3.70;;;;;;;13.15;73.09;101157.34;4996415;28;20428;-49
2023/06/22 11:12:22;;;;;;;11.82;3.75;;;;;;;12.83;74.25;101159.16;4996543;28;20463;-47
2023/06/22 11:14:51;;;;;;;10.25;3.97;;;;;;;12.90;74.41;101153.75;4996300;28;20054;-47
2023/06/22 11:17:18;;;;;;;5.28;3.60;;;;;;;12.94;73.70;101150.44;4996225;28;20379;-45
2023/06/22 11:19:45;;;;;;;8.48;4.15;;;;;;;12.96;73.70;101142.16;4996074;28;20034;-47
2023/06/22 11:22:11;;;;;;;9.10;3.92;;;;;;;12.92;73.95;101147.13;4996223;28;20467;-48